createdAt,value
2022-09-16T00:00:44.979Z,99055.06
2022-09-16T00:03:33.121Z,99053.41
2022-09-16T00:06:20.404Z,99058.75
2022-09-16T00:09:08.502Z,99049.88
2022-09-16T00:11:55.646Z,99043.13
2022-09-16T00:14:42.804Z,99052.31
2022-09-16T00:17:29.817Z,99052.69
2022-09-16T00:20:17.372Z,99051.00
2022-09-16T00:23:04.457Z,99052.69
2022-09-16T00:25:52.912Z,99054.53
2022-09-16T00:28:41.398Z,99051.88
2022-09-16T00:31:28.341Z,99048.47
2022-09-16T00:34:15.601Z,99043.13
2022-09-16T00:37:02.424Z,99047.63
2022-09-16T00:39:50.514Z,99047.63
2022-09-16T00:42:38.801Z,99041.47
2022-09-16T00:45:35.646Z,99040.03
2022-09-16T00:48:27.100Z,99043.44
2022-09-16T00:51:23.511Z,99043.56
2022-09-16T00:54:15.487Z,99041.75
2022-09-16T00:57:05.160Z,99041.91
2022-09-16T00:59:55.546Z,99040.03
2022-09-16T01:02:44.224Z,99041.91
2022-09-16T01:05:37.307Z,99035.84
2022-09-16T01:08:25.353Z,99029.50
2022-09-16T01:11:12.704Z,99043.88
2022-09-16T01:14:00.943Z,99039.50
2022-09-16T01:16:58.389Z,99031.59
2022-09-16T01:20:16.801Z,99035.25
2022-09-16T01:23:22.052Z,99030.03
2022-09-16T01:26:36.216Z,99031.03
2022-09-16T01:29:53.930Z,99035.53
2022-09-16T01:32:49.246Z,99033.00
2022-09-16T01:36:09.587Z,99038.50
2022-09-16T01:39:25.798Z,99027.81
2022-09-16T01:42:37.996Z,98988.34
2022-09-16T01:45:46.984Z,99026.13
2022-09-16T01:48:55.587Z,99026.97
2022-09-16T01:51:48.281Z,99029.66
2022-09-16T01:54:53.931Z,99027.94
2022-09-16T01:57:49.708Z,99023.47
2022-09-16T02:00:37.169Z,99019.94
2022-09-16T02:03:29.260Z,99013.75
2022-09-16T02:06:22.152Z,99012.75
2022-09-16T02:09:24.987Z,99018.25
2022-09-16T02:12:17.651Z,99013.34
2022-09-16T02:15:08.075Z,99014.72
2022-09-16T02:18:01.036Z,99013.91
2022-09-16T02:20:52.092Z,99008.56
2022-09-16T02:23:43.471Z,99010.53
2022-09-16T02:26:34.578Z,99010.53
2022-09-16T02:29:23.584Z,98982.56
2022-09-16T02:32:15.387Z,99008.00
2022-09-16T02:35:09.255Z,99005.31
2022-09-16T02:38:10.579Z,99006.31
2022-09-16T02:41:04.648Z,98989.31
2022-09-16T02:43:52.372Z,99006.31
2022-09-16T02:46:44.271Z,99012.63
2022-09-16T02:49:32.671Z,99011.78
2022-09-16T02:52:23.556Z,99002.94
2022-09-16T02:55:17.911Z,99004.63
2022-09-16T02:58:04.935Z,99007.44
2022-09-16T03:00:56.591Z,99002.25
2022-09-16T03:03:43.788Z,98998.47
2022-09-16T03:06:40.057Z,98999.72
2022-09-16T03:09:30.793Z,98996.31
2022-09-16T03:12:29.770Z,98999.84
2022-09-16T03:15:29.695Z,99006.19
2022-09-16T03:18:42.529Z,98983.97
2022-09-16T03:21:41.605Z,98986.78
2022-09-16T03:24:56.465Z,99002.66
2022-09-16T03:28:10.691Z,99007.88
2022-09-16T03:31:24.539Z,99006.50
2022-09-16T03:34:17.928Z,98995.94
2022-09-16T03:37:10.748Z,98999.16
2022-09-16T03:39:58.408Z,98991.84
2022-09-16T03:42:45.742Z,99002.66
2022-09-16T03:45:36.759Z,99008.03
2022-09-16T03:48:23.777Z,99003.66
2022-09-16T03:51:10.880Z,99009.03
2022-09-16T03:53:57.812Z,99010.97
2022-09-16T03:56:44.996Z,99003.66
2022-09-16T03:59:31.785Z,98995.38
2022-09-16T04:02:18.986Z,99012.38
2022-09-16T04:05:06.077Z,99002.66
2022-09-16T04:07:53.467Z,98966.00
2022-09-16T04:10:40.335Z,99009.69
2022-09-16T04:13:27.360Z,99006.19
2022-09-16T04:16:14.245Z,99002.66
2022-09-16T04:19:01.573Z,99003.66
2022-09-16T04:21:48.628Z,99001.66
2022-09-16T04:24:35.682Z,98992.00
2022-09-16T04:27:22.508Z,98999.16
2022-09-16T04:30:09.631Z,99000.00
2022-09-16T04:32:56.633Z,98985.69
2022-09-16T04:35:44.281Z,98995.66
2022-09-16T04:38:31.085Z,99003.81
2022-09-16T04:41:23.236Z,98994.94
2022-09-16T04:44:16.038Z,98994.38
2022-09-16T04:47:03.159Z,98980.78
2022-09-16T04:49:50.047Z,98992.28
2022-09-16T04:52:36.947Z,98996.75
2022-09-16T04:55:24.166Z,98992.28
2022-09-16T04:58:11.697Z,98992.28
2022-09-16T05:00:58.508Z,98982.16
2022-09-16T05:03:45.764Z,98992.56
2022-09-16T05:06:35.748Z,98994.53
2022-09-16T05:09:23.327Z,98995.53
2022-09-16T05:12:10.161Z,98986.66
2022-09-16T05:14:57.279Z,98970.94
2022-09-16T05:17:51.378Z,98993.00
2022-09-16T05:20:39.136Z,98990.31
2022-09-16T05:23:25.921Z,98980.06
2022-09-16T05:26:13.577Z,98989.47
2022-09-16T05:29:00.943Z,98991.31
2022-09-16T05:31:50.209Z,98986.66
2022-09-16T05:34:40.157Z,98992.13
2022-09-16T05:37:27.292Z,98992.28
2022-09-16T05:40:14.167Z,98992.44
2022-09-16T05:43:01.273Z,98992.44
2022-09-16T05:45:48.188Z,98978.25
2022-09-16T05:48:35.073Z,98980.78
2022-09-16T05:51:26.768Z,98986.13
2022-09-16T05:54:14.937Z,98969.94
2022-09-16T05:57:06.590Z,98978.78
2022-09-16T05:59:54.160Z,98980.47
2022-09-16T06:02:41.103Z,98971.47
2022-09-16T06:05:28.381Z,98979.50
2022-09-16T06:08:17.084Z,98971.19
2022-09-16T06:11:04.127Z,98976.38
2022-09-16T06:13:51.396Z,98983.41
2022-09-16T06:16:38.389Z,98981.56
2022-09-16T06:19:34.388Z,98983.25
2022-09-16T06:22:21.398Z,98979.63
2022-09-16T06:25:08.304Z,98981.28
2022-09-16T06:27:55.264Z,98972.69
2022-09-16T06:30:42.110Z,98974.94
2022-09-16T06:33:29.124Z,98976.66
2022-09-16T06:36:16.013Z,98979.31
2022-09-16T06:39:02.979Z,98977.47
2022-09-16T06:41:52.116Z,98951.91
2022-09-16T06:44:43.368Z,98976.66
2022-09-16T06:47:30.147Z,98974.94
2022-09-16T06:50:17.129Z,98972.25
2022-09-16T06:53:04.038Z,98962.75
2022-09-16T06:55:51.064Z,98973.41
2022-09-16T06:58:37.860Z,98980.72
2022-09-16T07:01:29.221Z,98988.06
2022-09-16T07:04:17.312Z,98968.78
2022-09-16T07:07:11.206Z,98982.31
2022-09-16T07:09:58.356Z,98984.97
2022-09-16T07:12:45.297Z,98980.47
2022-09-16T07:15:32.127Z,98983.97
2022-09-16T07:18:19.360Z,98977.53
2022-09-16T07:21:06.759Z,98995.22
2022-09-16T07:23:55.747Z,98992.28
2022-09-16T07:26:45.203Z,98987.63
2022-09-16T07:29:34.460Z,98990.84
2022-09-16T07:32:21.775Z,98991.41
2022-09-16T07:35:08.638Z,98988.44
2022-09-16T07:37:55.625Z,98981.56
2022-09-16T07:40:25.421Z,98995.34
2022-09-16T07:43:15.223Z,98993.47
2022-09-16T07:46:02.193Z,98988.00
2022-09-16T07:48:52.170Z,98989.69
2022-09-16T07:51:41.897Z,98995.88
2022-09-16T07:54:31.945Z,98997.44
2022-09-16T07:57:18.921Z,99003.59
2022-09-16T08:00:05.951Z,99008.94
2022-09-16T08:02:38.545Z,98999.13
2022-09-16T08:05:25.887Z,99010.66
2022-09-16T08:08:12.906Z,99022.03
2022-09-16T08:11:00.019Z,99028.94
2022-09-16T08:13:48.441Z,99018.13
2022-09-16T08:16:38.295Z,99027.66
2022-09-16T08:19:25.296Z,99023.69
2022-09-16T08:22:12.294Z,99032.44
2022-09-16T08:24:59.999Z,99015.00
2022-09-16T08:27:46.856Z,99038.34
2022-09-16T08:30:34.726Z,99037.50
2022-09-16T08:33:21.584Z,99043.53
2022-09-16T08:36:28.172Z,99035.22
2022-09-16T08:39:16.312Z,99031.56
2022-09-16T08:42:27.996Z,99043.66
2022-09-16T08:45:27.219Z,99039.41
2022-09-16T08:48:28.608Z,99033.47
2022-09-16T08:51:18.847Z,99031.03
2022-09-16T08:54:08.747Z,99027.75
2022-09-16T08:56:58.421Z,99030.00
2022-09-16T08:59:48.879Z,99029.41
2022-09-16T09:03:11.180Z,99023.44
2022-09-16T09:05:52.561Z,99025.66
2022-09-16T09:08:22.085Z,99032.34
2022-09-16T09:11:12.041Z,99029.06
2022-09-16T09:14:01.549Z,99033.81
2022-09-16T09:17:06.090Z,99030.38
2022-09-16T09:20:14.669Z,99029.09
2022-09-16T09:23:13.516Z,99020.59
2022-09-16T09:26:09.392Z,99029.03
2022-09-16T09:28:56.142Z,99025.88
2022-09-16T09:32:11.092Z,99028.25
2022-09-16T09:35:22.790Z,99034.16
2022-09-16T09:38:33.968Z,99035.00
2022-09-16T09:41:40.911Z,99026.97
2022-09-16T09:44:46.445Z,99037.53
2022-09-16T09:47:53.970Z,99038.06
2022-09-16T09:51:05.486Z,99029.72
2022-09-16T09:54:05.824Z,99032.91
2022-09-16T09:57:01.931Z,99031.78
2022-09-16T10:00:07.108Z,99035.13
2022-09-16T10:03:01.571Z,99033.31
2022-09-16T10:05:49.396Z,99034.16
2022-09-16T10:08:44.197Z,99040.38
2022-09-16T10:11:43.018Z,99030.63
2022-09-16T10:14:43.753Z,99028.25
2022-09-16T10:17:37.755Z,99036.13
2022-09-16T10:20:41.361Z,99038.13
2022-09-16T10:23:34.640Z,99042.97
2022-09-16T10:26:38.991Z,99035.41
2022-09-16T10:29:38.587Z,99042.75
2022-09-16T10:32:28.831Z,99043.19
2022-09-16T10:35:16.420Z,99043.34
2022-09-16T10:38:10.776Z,99047.47
2022-09-16T10:40:57.862Z,99047.78
2022-09-16T10:43:46.368Z,99049.59
2022-09-16T10:46:35.986Z,99049.59
2022-09-16T10:49:30.760Z,99046.78
2022-09-16T10:52:28.217Z,99038.72
2022-09-16T10:55:16.188Z,99052.13
2022-09-16T10:58:03.416Z,99037.47
2022-09-16T11:00:57.479Z,99048.75
2022-09-16T11:04:21.838Z,99051.59
2022-09-16T11:07:16.911Z,99052.28
2022-09-16T11:10:28.291Z,99052.97
2022-09-16T11:13:42.327Z,99059.72
2022-09-16T11:16:40.136Z,99049.56
2022-09-16T11:20:08.667Z,99053.75
2022-09-16T11:23:06.303Z,99048.94
2022-09-16T11:26:14.523Z,99039.22
2022-09-16T11:29:14.124Z,99047.25
2022-09-16T11:32:41.999Z,99046.44
2022-09-16T11:35:42.084Z,99050.47
2022-09-16T11:39:06.247Z,99047.31
2022-09-16T11:42:04.551Z,99047.72
2022-09-16T11:45:18.303Z,99045.75
2022-09-16T11:48:28.455Z,99041.19
2022-09-16T11:51:31.760Z,99053.63
2022-09-16T11:54:37.369Z,99048.09
2022-09-16T11:57:31.409Z,99046.47
2022-09-16T12:00:22.541Z,99043.63
2022-09-16T12:03:29.406Z,99059.41
2022-09-16T12:06:27.953Z,99051.53
2022-09-16T12:09:21.217Z,99048.53
2022-09-16T12:12:16.990Z,99033.94
2022-09-16T12:15:10.294Z,99030.69
2022-09-16T12:18:00.231Z,99042.31
2022-09-16T12:20:55.081Z,99057.28
2022-09-16T12:23:49.673Z,99050.22
2022-09-16T12:26:50.212Z,99054.91
2022-09-16T12:29:58.907Z,99059.41
2022-09-16T12:32:57.748Z,99053.91
2022-09-16T12:35:51.031Z,99049.22
2022-09-16T12:38:40.344Z,99056.81
2022-09-16T12:41:39.444Z,99055.81
2022-09-16T12:44:52.538Z,99065.38
2022-09-16T12:48:08.363Z,99054.78
2022-09-16T12:51:07.459Z,99061.31
2022-09-16T12:53:52.036Z,99060.78
2022-09-16T12:57:00.536Z,99062.78
2022-09-16T12:59:53.726Z,99062.09
2022-09-16T13:02:50.724Z,99064.09
2022-09-16T13:05:49.011Z,99062.41
2022-09-16T13:09:02.048Z,99057.75
2022-09-16T13:15:10.448Z,99060.28
2022-09-16T13:18:00.033Z,99059.41
2022-09-16T13:20:52.636Z,99061.09
2022-09-16T13:23:53.940Z,99056.59
2022-09-16T13:26:41.023Z,99059.41
2022-09-16T13:29:46.787Z,99061.56
2022-09-16T13:32:42.879Z,99060.88
2022-09-16T13:35:36.527Z,99059.03
2022-09-16T13:38:44.495Z,99070.44
2022-09-16T13:41:33.789Z,99053.97
2022-09-16T13:44:21.281Z,99071.31
2022-09-16T13:47:08.704Z,99064.94
2022-09-16T13:50:03.165Z,99079.34
2022-09-16T13:52:52.745Z,99069.59
2022-09-16T13:55:46.669Z,99073.59
2022-09-16T13:58:47.660Z,99072.91
2022-09-16T14:01:59.362Z,99064.34
2022-09-16T14:04:49.869Z,99074.91
2022-09-16T14:08:27.019Z,99073.22
2022-09-16T14:11:27.940Z,99081.56
2022-09-16T14:14:47.533Z,99081.88
2022-09-16T14:17:44.838Z,99081.63
2022-09-16T14:20:38.525Z,99092.03
2022-09-16T14:23:37.152Z,99088.69
2022-09-16T14:26:38.819Z,99078.13
2022-09-16T14:29:25.857Z,99096.75
2022-09-16T14:32:14.820Z,99092.34
2022-09-16T14:35:01.992Z,99096.88
2022-09-16T14:37:51.419Z,99094.38
2022-09-16T14:40:42.224Z,99090.97
2022-09-16T14:43:35.598Z,99096.66
2022-09-16T18:37:32.159Z,99128.28
2022-09-16T18:39:59.267Z,99127.28
2022-09-16T18:42:26.183Z,99130.81
2022-09-16T18:44:53.102Z,99130.81
2022-09-16T18:47:20.364Z,99128.00
2022-09-16T18:49:47.191Z,99119.16
2022-09-16T18:52:14.216Z,99122.66
2022-09-16T18:54:41.480Z,99117.31
2022-09-16T18:57:09.276Z,99125.34
2022-09-16T18:59:37.169Z,99127.03
2022-09-16T19:02:05.510Z,99114.63
2022-09-16T19:04:38.546Z,99103.94
2022-09-16T19:07:08.105Z,99110.13
2022-09-16T19:09:38.215Z,99107.47
2022-09-16T19:12:07.015Z,99112.81
2022-09-16T19:14:34.223Z,99115.47
2022-09-16T19:17:01.107Z,99119.97
2022-09-16T19:19:28.258Z,99114.63
2022-09-16T19:21:55.561Z,99116.47
2022-09-16T19:24:24.798Z,99108.56
2022-09-16T19:26:54.313Z,99105.91
2022-09-16T19:29:22.147Z,99110.44
2022-09-16T19:31:54.703Z,99107.75
2022-09-16T19:34:22.632Z,99105.91
2022-09-16T19:36:49.862Z,99112.25
2022-09-16T19:39:17.004Z,99108.72
2022-09-16T19:41:45.296Z,99111.53
2022-09-16T19:44:14.785Z,99102.69
2022-09-16T19:46:47.135Z,99109.16
2022-09-16T19:49:19.920Z,99113.69
2022-09-16T19:51:48.401Z,99105.81
2022-09-16T19:54:16.440Z,99109.28
2022-09-16T19:56:48.186Z,99109.44
2022-09-16T19:59:17.987Z,99108.47
2022-09-16T20:01:45.050Z,99105.94
2022-09-16T20:04:12.223Z,99107.91
2022-09-16T20:06:41.691Z,99113.41
2022-09-16T20:09:14.252Z,99107.31
2022-09-16T20:11:44.727Z,99103.72
2022-09-16T20:14:16.294Z,99107.31
2022-09-16T20:16:43.963Z,99104.78
2022-09-16T20:19:13.925Z,99099.56
2022-09-16T20:21:41.669Z,99106.78
2022-09-16T20:24:14.544Z,99108.59
2022-09-16T20:26:41.556Z,99105.06
2022-09-16T20:29:08.540Z,99109.59
2022-09-16T20:31:36.864Z,99116.75
2022-09-16T20:34:04.663Z,99107.88
2022-09-16T20:36:35.859Z,99117.75
2022-09-16T20:39:04.073Z,99107.78
2022-09-16T20:41:33.255Z,99117.06
2022-09-16T20:44:00.439Z,99110.03
2022-09-16T20:46:33.019Z,99134.25
2022-09-16T20:49:01.804Z,99131.56
2022-09-16T20:51:33.653Z,99135.19
2022-09-16T20:54:07.743Z,99120.31
2022-09-16T20:56:38.967Z,99128.03
2022-09-16T20:59:08.313Z,99134.38
2022-09-16T21:01:37.068Z,99134.38
2022-09-16T21:04:06.622Z,99127.47
2022-09-16T21:06:35.528Z,99142.53
2022-09-16T21:09:05.541Z,99132.00
2022-09-16T21:11:33.333Z,99123.25
2022-09-16T21:14:04.140Z,99138.31
2022-09-16T21:16:34.208Z,99142.13
2022-09-16T21:19:04.264Z,99147.31
2022-09-16T21:21:32.125Z,99152.81
2022-09-16T21:24:01.384Z,99145.75
2022-09-16T21:26:31.159Z,99156.59
2022-09-16T21:29:01.119Z,99155.78
2022-09-16T21:31:33.615Z,99156.72
2022-09-16T21:34:03.135Z,99163.94
2022-09-16T21:36:31.275Z,99169.41
2022-09-16T21:38:59.318Z,99168.72
2022-09-16T21:41:26.672Z,99161.25
2022-09-16T21:43:55.771Z,99169.84
2022-09-16T21:46:27.234Z,99172.66
2022-09-16T21:49:01.177Z,99178.97
2022-09-16T21:51:35.440Z,99174.63
2022-09-16T21:54:07.464Z,99181.78
2022-09-16T21:56:38.478Z,99179.97
2022-09-16T21:59:26.085Z,99180.97
2022-09-16T22:02:13.262Z,99181.91
2022-09-16T22:05:00.165Z,99188.25
2022-09-16T22:07:47.607Z,99189.13
2022-09-16T22:10:34.664Z,99191.94
2022-09-16T22:13:21.824Z,99192.06
2022-09-16T22:16:12.121Z,99171.09
2022-09-16T22:18:59.656Z,99195.84
2022-09-16T22:21:49.444Z,99190.63
2022-09-16T22:24:37.553Z,99203.19
2022-09-16T22:27:24.575Z,99206.00
2022-09-16T22:30:11.522Z,99195.59
2022-09-16T22:32:58.324Z,99211.72
2022-09-16T22:35:45.402Z,99211.88
2022-09-16T22:38:32.192Z,99217.34
2022-09-16T22:41:23.796Z,99215.81
2022-09-16T22:44:12.298Z,99219.59
2022-09-16T22:47:04.403Z,99217.22
2022-09-16T22:49:51.289Z,99221.97
2022-09-16T22:52:38.316Z,99224.78
2022-09-16T22:55:26.024Z,99222.38
2022-09-16T22:58:13.124Z,99229.69
2022-09-16T23:01:00.030Z,99224.63
2022-09-16T23:03:47.029Z,99230.22
2022-09-16T23:06:35.520Z,99219.81
2022-09-16T23:09:23.656Z,99223.63
2022-09-16T23:12:10.640Z,99219.22
2022-09-16T23:14:57.576Z,99223.03
2022-09-16T23:17:44.440Z,99215.56
2022-09-16T23:20:31.571Z,99221.63
2022-09-16T23:23:18.548Z,99218.38
2022-09-16T23:26:05.444Z,99219.50
2022-09-16T23:28:52.898Z,99216.09
2022-09-16T23:31:42.783Z,99224.25
2022-09-16T23:34:38.720Z,99216.38
2022-09-16T23:37:25.600Z,99224.38
2022-09-16T23:40:12.576Z,99224.38
2022-09-16T23:42:59.608Z,99220.88
2022-09-16T23:45:46.478Z,99229.00
2022-09-16T23:48:33.689Z,99225.50
2022-09-16T23:51:23.591Z,99220.44
2022-09-16T23:54:14.857Z,99212.84
2022-09-16T23:57:01.856Z,99219.59
2022-09-16T23:59:48.737Z,99221.13
